createdAt,value
2023-01-10T00:00:33.157Z,99561.16
2023-01-10T00:03:25.357Z,99565.41
2023-01-10T00:06:15.451Z,99569.00
2023-01-10T00:08:58.420Z,99579.75
2023-01-10T00:12:05.514Z,99589.84
2023-01-10T00:14:47.660Z,99586.50
2023-01-10T00:17:36.383Z,99579.66
2023-01-10T00:20:19.683Z,99597.81
2023-01-10T00:23:08.430Z,99601.06
2023-01-10T00:25:50.741Z,99595.91
2023-01-10T00:28:42.702Z,99596.59
2023-01-10T00:31:25.791Z,99602.88
2023-01-10T00:34:15.492Z,99606.66
2023-01-10T00:37:04.330Z,99607.16
2023-01-10T00:39:53.342Z,99623.19
2023-01-10T00:42:54.041Z,99624.34
2023-01-10T00:45:43.337Z,99611.44
2023-01-10T00:48:25.766Z,99604.50
2023-01-10T00:51:14.403Z,99619.28
2023-01-10T00:54:02.804Z,99624.06
2023-01-10T00:56:44.381Z,99630.13
2023-01-10T00:59:33.395Z,99639.06
2023-01-10T01:02:22.467Z,99626.97
2023-01-10T01:05:20.339Z,99621.34
2023-01-10T01:08:02.599Z,99622.53
2023-01-10T01:10:51.478Z,99618.13
2023-01-10T01:13:33.630Z,99622.34
2023-01-10T01:16:23.449Z,99633.47
2023-01-10T01:19:05.633Z,99624.00
2023-01-10T01:21:54.325Z,99620.16
2023-01-10T01:24:36.757Z,99618.16
2023-01-10T01:27:25.404Z,99617.25
2023-01-10T01:30:15.717Z,99618.19
2023-01-10T01:32:57.683Z,99623.97
2023-01-10T01:35:49.430Z,99623.81
2023-01-10T01:38:31.694Z,99627.22
2023-01-10T01:41:39.331Z,99618.25
2023-01-10T01:44:26.727Z,99618.22
2023-01-10T01:47:22.483Z,99622.19
2023-01-10T01:50:04.679Z,99623.84
2023-01-10T01:52:55.368Z,99636.09
2023-01-10T01:55:41.654Z,99641.00
2023-01-10T01:58:38.342Z,99633.75
2023-01-10T02:01:22.802Z,99631.31
2023-01-10T02:04:30.374Z,99635.44
2023-01-10T02:07:12.757Z,99645.03
2023-01-10T02:10:06.417Z,99651.59
2023-01-10T02:12:56.400Z,99646.13
2023-01-10T02:15:38.661Z,99648.19
2023-01-10T02:18:28.456Z,99654.59
2023-01-10T02:21:41.383Z,99654.47
2023-01-10T02:24:44.715Z,99662.56
2023-01-10T02:28:22.373Z,99655.13
2023-01-10T02:31:22.855Z,99641.75
2023-01-10T02:34:25.235Z,99646.88
2023-01-10T02:37:32.253Z,99645.75
2023-01-10T02:40:52.528Z,99662.22
2023-01-10T02:43:57.459Z,99663.38
2023-01-10T02:46:41.763Z,99663.78
2023-01-10T02:49:30.283Z,99655.72
2023-01-10T02:52:19.437Z,99659.81
2023-01-10T02:55:14.390Z,99668.38
2023-01-10T02:58:20.875Z,99661.56
2023-01-10T03:01:47.475Z,99671.50
2023-01-10T03:05:06.267Z,99683.88
2023-01-10T03:08:00.657Z,99688.97
2023-01-10T03:11:10.318Z,99690.56
2023-01-10T03:14:12.404Z,99702.13
2023-01-10T03:17:04.941Z,99700.63
2023-01-10T03:20:00.285Z,99704.63
2023-01-10T03:22:44.282Z,99709.22
2023-01-10T03:25:41.441Z,99714.50
2023-01-10T03:28:53.638Z,99708.88
2023-01-10T03:31:53.404Z,99714.03
2023-01-10T03:34:42.720Z,99724.13
2023-01-10T03:37:42.300Z,99726.13
2023-01-10T03:40:42.642Z,99725.28
2023-01-10T03:44:23.300Z,99713.69
2023-01-10T03:47:22.353Z,99710.88
2023-01-10T03:50:38.442Z,99713.38
2023-01-10T03:53:34.273Z,99717.16
2023-01-10T03:56:23.295Z,99719.34
2023-01-10T03:59:13.236Z,99725.78
2023-01-10T04:01:56.169Z,99735.38
2023-01-10T04:04:45.408Z,99732.97
2023-01-10T04:07:35.236Z,99737.44
2023-01-10T04:10:18.444Z,99751.53
2023-01-10T04:13:10.693Z,99746.38
2023-01-10T04:15:52.298Z,99748.19
2023-01-10T04:18:34.502Z,99756.19
2023-01-10T04:21:23.298Z,99757.31
2023-01-10T04:24:05.773Z,99764.88
2023-01-10T04:26:54.343Z,99765.22
2023-01-10T04:29:36.604Z,99782.88
2023-01-10T04:32:25.305Z,99782.56
2023-01-10T04:35:08.058Z,99787.75
2023-01-10T04:37:58.327Z,99791.59
2023-01-10T04:40:53.441Z,99792.06
2023-01-10T04:43:35.540Z,99769.94
2023-01-10T04:46:24.434Z,99769.44
2023-01-10T04:49:07.177Z,99773.41
2023-01-10T04:51:56.329Z,99774.75
2023-01-10T04:54:52.347Z,99770.59
2023-01-10T04:57:34.722Z,99776.41
2023-01-10T05:00:24.281Z,99774.91
2023-01-10T05:03:13.280Z,99776.91
2023-01-10T05:05:55.628Z,99780.31
2023-01-10T05:08:44.335Z,99770.72
2023-01-10T05:11:26.656Z,99768.94
2023-01-10T05:14:15.313Z,99772.09
2023-01-10T05:16:57.639Z,99769.44
2023-01-10T05:19:46.332Z,99774.25
2023-01-10T05:22:28.700Z,99769.91
2023-01-10T05:25:18.420Z,99771.38
2023-01-10T05:28:02.215Z,99771.75
2023-01-10T05:30:51.378Z,99766.13
2023-01-10T05:33:40.282Z,99748.41
2023-01-10T05:36:28.653Z,99734.81
2023-01-10T05:39:12.703Z,99748.53
2023-01-10T05:42:01.836Z,99747.91
2023-01-10T05:44:43.423Z,99745.03
2023-01-10T05:47:31.758Z,99755.63
2023-01-10T05:50:14.292Z,99754.59
2023-01-10T05:53:03.326Z,99739.19
2023-01-10T05:55:52.767Z,99743.13
2023-01-10T05:58:36.421Z,99738.94
2023-01-10T06:01:25.289Z,99733.91
2023-01-10T06:04:14.371Z,99728.34
2023-01-10T06:07:05.835Z,99737.06
2023-01-10T06:09:47.882Z,99743.59
2023-01-10T06:12:36.409Z,99734.81
2023-01-10T06:15:26.351Z,99729.97
2023-01-10T06:18:15.681Z,99737.53
2023-01-10T06:20:58.417Z,99726.84
2023-01-10T06:27:25.235Z,99718.06
2023-01-10T06:30:08.292Z,99713.34
2023-01-10T06:32:57.370Z,99712.25
2023-01-10T06:35:48.006Z,99703.97
2023-01-10T06:38:30.366Z,99696.97
2023-01-10T06:41:18.696Z,99693.56
2023-01-10T06:44:00.390Z,99696.91
2023-01-10T06:46:49.424Z,99688.00
2023-01-10T06:49:31.807Z,99683.06
2023-01-10T06:52:20.363Z,99686.47
2023-01-10T06:55:02.600Z,99679.56
2023-01-10T06:57:51.372Z,99680.34
2023-01-10T07:00:35.784Z,99677.34
2023-01-10T07:03:24.276Z,99676.44
2023-01-10T07:06:12.420Z,99666.19
2023-01-10T07:09:04.237Z,99647.31
2023-01-10T07:11:46.594Z,99648.09
2023-01-10T07:14:35.377Z,99639.69
2023-01-10T07:17:17.618Z,99641.44
2023-01-10T07:20:06.372Z,99631.81
2023-01-10T07:22:48.631Z,99628.22
2023-01-10T07:25:38.308Z,99616.81
2023-01-10T07:28:27.397Z,99616.69
2023-01-10T07:31:16.376Z,99612.19
2023-01-10T07:34:08.366Z,99601.91
2023-01-10T07:36:57.264Z,99594.91
2023-01-10T07:39:39.677Z,99595.81
2023-01-10T07:42:28.320Z,99584.63
2023-01-10T07:45:10.588Z,99580.22
2023-01-10T07:47:59.367Z,99575.75
2023-01-10T07:50:43.722Z,99563.28
2023-01-10T07:53:33.256Z,99569.47
2023-01-10T07:56:15.574Z,99558.38
2023-01-10T07:59:04.395Z,99546.06
2023-01-10T08:01:53.401Z,99536.41
2023-01-10T08:04:35.614Z,99537.25
2023-01-10T08:07:24.262Z,99521.19
2023-01-10T08:10:07.755Z,99524.00
2023-01-10T08:12:57.734Z,99528.19
2023-01-10T08:15:39.670Z,99528.19
2023-01-10T08:18:28.344Z,99516.84
2023-01-10T08:21:18.375Z,99515.00
2023-01-10T08:24:01.662Z,99503.41
2023-01-10T08:26:50.274Z,99503.00
2023-01-10T08:29:32.607Z,99501.28
2023-01-10T08:32:21.246Z,99496.25
2023-01-10T08:35:03.621Z,99483.81
2023-01-10T08:37:52.322Z,99488.56
2023-01-10T08:40:36.111Z,99503.81
2023-01-10T08:43:25.305Z,99494.06
2023-01-10T08:46:14.250Z,99483.91
2023-01-10T08:49:03.424Z,99477.13
2023-01-10T08:51:46.606Z,99470.78
2023-01-10T08:54:35.356Z,99458.38
2023-01-10T08:57:17.553Z,99452.94
2023-01-10T09:00:06.328Z,99445.41
2023-01-10T09:02:49.749Z,99437.19
2023-01-10T09:05:38.441Z,99432.00
2023-01-10T09:08:20.631Z,99434.72
2023-01-10T09:11:10.382Z,99438.41
2023-01-10T09:13:52.737Z,99447.44
2023-01-10T09:16:41.238Z,99436.22
2023-01-10T09:19:30.362Z,99436.28
2023-01-10T09:22:18.595Z,99430.88
2023-01-10T09:25:01.266Z,99428.97
2023-01-10T09:27:50.610Z,99432.91
2023-01-10T09:30:33.255Z,99432.03
2023-01-10T09:33:22.605Z,99423.53
2023-01-10T09:36:08.543Z,99417.91
2023-01-10T09:38:57.621Z,99415.50
2023-01-10T09:42:03.290Z,99411.91
2023-01-10T09:44:48.055Z,99409.41
2023-01-10T09:48:02.272Z,99404.34
2023-01-10T09:51:18.656Z,99397.28
2023-01-10T09:54:12.482Z,99391.78
2023-01-10T09:57:01.657Z,99379.22
2023-01-10T09:59:50.334Z,99374.72
2023-01-10T10:02:49.608Z,99371.28
2023-01-10T10:05:36.253Z,99376.09
2023-01-10T10:08:21.425Z,99367.34
2023-01-10T10:11:15.310Z,99357.25
2023-01-10T10:14:43.197Z,99361.31
2023-01-10T10:17:54.260Z,99349.56
2023-01-10T10:21:05.315Z,99341.72
2023-01-10T10:24:05.620Z,99344.13
2023-01-10T10:27:16.242Z,99335.31
2023-01-10T10:30:17.694Z,99337.66
2023-01-10T10:33:18.276Z,99335.63
2023-01-10T10:36:12.502Z,99327.06
2023-01-10T10:39:03.431Z,99319.25
2023-01-10T10:42:09.123Z,99317.03
2023-01-10T10:45:03.285Z,99314.38
2023-01-10T10:47:58.173Z,99309.47
2023-01-10T10:51:00.682Z,99307.88
2023-01-10T10:53:43.331Z,99309.66
2023-01-10T10:56:27.876Z,99300.69
2023-01-10T10:59:16.251Z,99286.81
2023-01-10T11:01:58.595Z,99290.59
2023-01-10T11:04:47.221Z,99299.06
2023-01-10T11:07:35.642Z,99297.03
2023-01-10T11:10:43.248Z,99301.78
2023-01-10T11:13:34.481Z,99298.78
2023-01-10T11:16:37.377Z,99292.63
2023-01-10T11:19:31.748Z,99277.00
2023-01-10T11:22:16.373Z,99281.75
2023-01-10T11:25:09.567Z,99283.81
2023-01-10T11:28:06.324Z,99291.00
2023-01-10T11:30:48.661Z,99290.63
2023-01-10T11:33:43.356Z,99292.47
2023-01-10T11:36:26.264Z,99292.47
2023-01-10T11:39:15.240Z,99290.03
2023-01-10T11:42:06.412Z,99286.31
2023-01-10T11:44:55.542Z,99282.81
2023-01-10T11:47:45.288Z,99280.97
2023-01-10T11:50:38.895Z,99265.38
2023-01-10T11:53:43.222Z,99270.09
2023-01-10T11:56:37.660Z,99273.63
2023-01-10T11:59:26.761Z,99271.13
2023-01-10T12:02:23.468Z,99282.38
2023-01-10T12:05:10.150Z,99282.53
2023-01-10T12:08:14.288Z,99295.44
2023-01-10T12:11:26.111Z,99292.72
2023-01-10T12:14:28.184Z,99292.50
2023-01-10T12:17:11.673Z,99285.25
2023-01-10T12:20:04.277Z,99284.44
2023-01-10T12:22:59.761Z,99291.03
2023-01-10T12:26:11.127Z,99291.88
2023-01-10T12:28:58.874Z,99291.13
2023-01-10T12:31:49.264Z,99291.28
2023-01-10T12:34:50.218Z,99300.88
2023-01-10T12:37:51.416Z,99298.34
2023-01-10T12:40:58.751Z,99301.00
2023-01-10T12:44:09.309Z,99303.84
2023-01-10T12:47:09.917Z,99305.03
2023-01-10T12:50:21.402Z,99305.44
2023-01-10T12:53:27.622Z,99303.41
2023-01-10T12:56:15.226Z,99301.78
2023-01-10T12:59:11.587Z,99304.75
2023-01-10T13:02:02.379Z,99313.78
2023-01-10T13:04:56.591Z,99325.16
2023-01-10T13:07:43.217Z,99320.66
2023-01-10T13:10:34.649Z,99333.41
2023-01-10T13:13:45.743Z,99335.28
2023-01-10T13:16:43.178Z,99332.44
2023-01-10T13:19:32.189Z,99325.53
2023-01-10T13:22:28.657Z,99335.44
2023-01-10T13:25:11.277Z,99337.09
2023-01-10T13:28:29.244Z,99341.13
2023-01-10T13:31:27.780Z,99334.34
2023-01-10T13:34:20.313Z,99341.81
2023-01-10T13:37:20.663Z,99346.56
2023-01-10T13:40:08.301Z,99352.72
2023-01-10T13:43:34.789Z,99350.06
2023-01-10T13:46:33.362Z,99345.41
2023-01-10T13:49:32.088Z,99351.06
2023-01-10T13:52:40.277Z,99350.75
2023-01-10T13:55:40.737Z,99348.03
2023-01-10T13:58:49.312Z,99337.53
2023-01-10T14:02:03.951Z,99321.53
2023-01-10T14:05:04.308Z,99336.81
2023-01-10T14:07:51.725Z,99334.94
2023-01-10T14:10:48.512Z,99324.78
2023-01-10T14:13:38.202Z,99331.91
2023-01-10T14:16:50.141Z,99323.31
2023-01-10T14:19:45.295Z,99331.63
2023-01-10T14:22:50.282Z,99323.41
2023-01-10T14:25:36.065Z,99326.19
2023-01-10T14:28:49.357Z,99330.22
2023-01-10T14:31:39.686Z,99329.47
2023-01-10T14:34:30.362Z,99326.69
2023-01-10T14:37:38.713Z,99332.00
2023-01-10T14:40:30.364Z,99331.19
2023-01-10T14:43:19.303Z,99332.63
2023-01-10T14:46:20.491Z,99327.53
2023-01-10T14:49:08.562Z,99337.78
2023-01-10T14:51:50.217Z,99337.06
2023-01-10T14:55:18.221Z,99338.72
2023-01-10T14:58:12.206Z,99346.28
2023-01-10T15:01:02.337Z,99343.63
2023-01-10T15:03:59.027Z,99341.44
2023-01-10T15:07:02.253Z,99339.88
2023-01-10T15:09:44.713Z,99341.53
2023-01-10T15:12:36.302Z,99347.94
2023-01-10T15:15:25.550Z,99344.28
2023-01-10T15:19:09.246Z,99340.53
2023-01-10T15:22:00.140Z,99350.25
2023-01-10T15:24:48.615Z,99333.56
2023-01-10T15:27:45.274Z,99338.44
2023-01-10T15:30:37.577Z,99348.94
2023-01-10T15:33:23.281Z,99345.09
2023-01-10T15:36:30.347Z,99333.41
2023-01-10T15:39:35.500Z,99333.22
2023-01-10T15:42:26.431Z,99334.16
2023-01-10T15:45:46.218Z,99329.72
2023-01-10T15:48:42.262Z,99339.50
2023-01-10T15:51:34.550Z,99340.34
2023-01-10T15:54:29.247Z,99351.78
2023-01-10T15:57:33.994Z,99348.28
2023-01-10T16:00:26.232Z,99349.28
2023-01-10T16:03:08.629Z,99347.00
2023-01-10T16:06:07.229Z,99358.25
2023-01-10T16:12:20.264Z,99346.28
2023-01-10T16:15:04.801Z,99360.75
2023-01-10T16:17:54.171Z,99362.38
2023-01-10T16:20:51.237Z,99365.03
2023-01-10T16:24:10.786Z,99378.25
2023-01-10T16:27:01.111Z,99377.84
2023-01-10T16:29:56.303Z,99375.72
2023-01-10T16:32:44.607Z,99379.84
2023-01-10T16:35:28.149Z,99381.41
2023-01-10T16:38:19.147Z,99382.56
2023-01-10T16:41:33.320Z,99389.31
2023-01-10T16:44:22.548Z,99381.44
2023-01-10T16:47:07.137Z,99385.34
2023-01-10T16:49:55.560Z,99388.75
2023-01-10T16:52:38.372Z,99376.09
2023-01-10T16:55:29.985Z,99365.88
2023-01-10T16:58:13.331Z,99371.19
2023-01-10T17:00:55.643Z,99380.22
2023-01-10T17:03:51.329Z,99394.53
2023-01-10T17:06:41.593Z,99401.28
2023-01-10T17:09:41.344Z,99391.59
2023-01-10T17:12:38.608Z,99390.69
2023-01-10T17:15:22.261Z,99392.97
2023-01-10T17:18:05.175Z,99372.38
2023-01-10T17:20:54.403Z,99364.69
2023-01-10T17:23:43.759Z,99359.19
2023-01-10T17:26:27.121Z,99358.34
2023-01-10T17:29:23.397Z,99358.56
2023-01-10T17:32:05.638Z,99363.25
2023-01-10T17:34:54.188Z,99366.22
2023-01-10T17:37:43.771Z,99368.22
2023-01-10T17:40:26.298Z,99366.97
2023-01-10T17:43:14.722Z,99378.56
2023-01-10T17:45:59.243Z,99378.47
2023-01-10T17:48:48.167Z,99376.59
2023-01-10T17:51:30.634Z,99372.88
2023-01-10T17:54:19.368Z,99359.53
2023-01-10T17:57:01.532Z,99348.88
2023-01-10T17:59:50.307Z,99347.41
2023-01-10T18:02:32.660Z,99346.25
2023-01-10T18:05:21.316Z,99345.66
2023-01-10T18:08:03.957Z,99350.94
2023-01-10T18:10:53.305Z,99354.97
2023-01-10T18:13:36.665Z,99344.09
2023-01-10T18:16:27.209Z,99348.63
2023-01-10T18:19:16.269Z,99353.09
2023-01-10T18:22:05.215Z,99348.09
2023-01-10T18:24:54.110Z,99339.50
2023-01-10T18:27:50.218Z,99333.97
2023-01-10T18:30:39.150Z,99316.94
2023-01-10T18:33:28.302Z,99308.16
2023-01-10T18:36:22.561Z,99301.13
2023-01-10T18:39:05.271Z,99306.22
2023-01-10T18:41:54.766Z,99304.25
2023-01-10T18:44:37.288Z,99297.81
2023-01-10T18:47:25.671Z,99291.59
2023-01-10T18:50:08.266Z,99295.91
2023-01-10T18:52:57.371Z,99288.00
2023-01-10T18:55:39.559Z,99287.88
2023-01-10T18:58:30.311Z,99287.66
2023-01-10T19:01:17.877Z,99271.38
2023-01-10T19:04:07.191Z,99273.75
2023-01-10T19:06:56.913Z,99279.09
2023-01-10T19:09:45.511Z,99282.53
2023-01-10T19:12:27.220Z,99282.16
2023-01-10T19:15:10.877Z,99273.25
2023-01-10T19:18:00.264Z,99263.13
2023-01-10T19:20:49.230Z,99260.78
2023-01-10T19:23:38.265Z,99249.41
2023-01-10T19:26:27.595Z,99247.81
2023-01-10T19:29:16.183Z,99251.06
2023-01-10T19:32:05.167Z,99245.44
2023-01-10T19:34:54.288Z,99247.09
2023-01-10T19:37:43.130Z,99221.97
2023-01-10T19:40:39.250Z,99232.34
2023-01-10T19:43:30.245Z,99222.03
2023-01-10T19:46:17.666Z,99223.69
2023-01-10T19:49:09.267Z,99211.78
2023-01-10T19:51:57.064Z,99208.22
2023-01-10T19:54:47.267Z,99208.97
2023-01-10T19:57:29.604Z,99203.50
2023-01-10T20:00:19.204Z,99214.38
2023-01-10T20:03:02.074Z,99212.81
2023-01-10T20:05:52.183Z,99205.72
2023-01-10T20:08:41.208Z,99199.16
2023-01-10T20:11:32.137Z,99203.84
2023-01-10T20:14:18.584Z,99195.25
2023-01-10T20:17:07.215Z,99169.00
2023-01-10T20:19:56.226Z,99152.75
2023-01-10T20:22:38.373Z,99147.84
2023-01-10T20:25:27.160Z,99167.78
2023-01-10T20:28:16.258Z,99174.94
2023-01-10T20:30:58.573Z,99160.13
2023-01-10T20:33:47.169Z,99166.97
2023-01-10T20:36:38.136Z,99167.94
2023-01-10T20:39:29.211Z,99173.97
2023-01-10T20:42:11.560Z,99159.25
2023-01-10T20:45:00.275Z,99162.78
2023-01-10T20:47:42.531Z,99176.59
2023-01-10T20:50:31.101Z,99179.78
2023-01-10T20:53:13.647Z,99182.06
2023-01-10T20:56:02.282Z,99184.41
2023-01-10T20:58:44.553Z,99177.78
2023-01-10T21:01:35.881Z,99176.72
2023-01-10T21:04:18.492Z,99176.44
2023-01-10T21:07:07.373Z,99160.84
2023-01-10T21:09:49.688Z,99145.91
2023-01-10T21:12:39.508Z,99137.22
2023-01-10T21:15:21.536Z,99147.31
2023-01-10T21:18:10.261Z,99142.69
2023-01-10T21:21:02.224Z,99136.81
2023-01-10T21:23:51.163Z,99127.22
2023-01-10T21:26:40.171Z,99124.22
2023-01-10T21:29:28.532Z,99119.56
2023-01-10T21:32:10.149Z,99113.69
2023-01-10T21:34:58.505Z,99116.63
2023-01-10T21:37:40.132Z,99120.13
2023-01-10T21:40:22.360Z,99122.13
2023-01-10T21:43:11.216Z,99119.94
2023-01-10T21:46:00.294Z,99120.25
2023-01-10T21:48:49.120Z,99116.41
2023-01-10T21:51:38.114Z,99122.41
2023-01-10T21:54:20.550Z,99123.50
2023-01-10T21:57:09.113Z,99116.28
2023-01-10T21:59:51.543Z,99121.78
2023-01-10T22:02:43.063Z,99127.88
2023-01-10T22:05:32.248Z,99126.81
2023-01-10T22:08:21.108Z,99135.34
2023-01-10T22:11:11.070Z,99129.53
2023-01-10T22:14:00.541Z,99129.16
2023-01-10T22:16:43.103Z,99116.63
2023-01-10T22:19:32.272Z,99112.75
2023-01-10T22:22:15.684Z,99101.69
2023-01-10T22:25:04.233Z,99109.47
2023-01-10T22:28:01.078Z,99117.41
2023-01-10T22:30:50.250Z,99108.47
2023-01-10T22:33:35.419Z,99094.16
2023-01-10T22:36:26.301Z,99085.91
2023-01-10T22:39:08.489Z,99080.88
2023-01-10T22:41:57.202Z,99079.56
2023-01-10T22:44:39.573Z,99075.28
2023-01-10T22:47:28.240Z,99066.97
2023-01-10T22:50:10.503Z,99054.94
2023-01-10T22:52:59.081Z,99047.72
2023-01-10T22:55:42.486Z,99042.75
2023-01-10T22:58:31.233Z,99054.69
2023-01-10T23:01:16.446Z,99055.81
2023-01-10T23:04:05.243Z,99057.34
2023-01-10T23:06:54.251Z,99049.41
2023-01-10T23:09:36.408Z,99046.75
2023-01-10T23:12:25.186Z,99043.00
2023-01-10T23:15:07.889Z,99059.59
2023-01-10T23:17:57.184Z,99086.06
2023-01-10T23:20:45.472Z,99099.13
2023-01-10T23:23:28.201Z,99092.09
2023-01-10T23:26:12.830Z,99077.06
2023-01-10T23:29:04.204Z,99080.88
2023-01-10T23:31:50.768Z,99069.53
2023-01-10T23:34:39.067Z,99049.75
2023-01-10T23:37:34.201Z,99037.81
2023-01-10T23:40:16.425Z,99031.81
2023-01-10T23:43:05.223Z,99012.47
2023-01-10T23:45:54.509Z,99015.81
2023-01-10T23:48:37.243Z,99014.66
2023-01-10T23:51:19.424Z,99003.88
2023-01-10T23:54:08.094Z,99011.94
2023-01-10T23:57:00.135Z,99004.63
2023-01-10T23:59:42.491Z,99000.88
